Create Tblcommutelog Verified Points Advance Search
| # | Trip ID | Id Commuter | Trip Date | Trip Num | Current Lat | Current Lng | Delta Distance | Current Time | Activity | Activity Confidence | Current Speed | |
|---|---|---|---|---|---|---|---|---|---|---|---|---|
| 70101 | 250911_787865_16656394_1609 | 787865 | (not set) | (not set) | 38.977117220662 | -76.928703212082 | 8.9216 | 2025-09-11 17:02:38 | in_vehicle | 100 | 5.1767146190778 | |
| 70102 | 250911_787832_16656357_1636 | 787832 | (not set) | (not set) | 39.146777554468 | -77.218235177725 | 15.4093 | 2025-09-11 17:02:39 | in_vehicle | 100 | 12.37404668878 | |
| 70103 | 250911_785302_16653423_1610 | 785302 | (not set) | (not set) | 39.122968691603 | -77.189886622744 | 19.472 | 2025-09-11 17:02:40 | in_vehicle | 100 | 12.02982645936 | |
| 70104 | 250911_786132_16505268_1601 | 786132 | (not set) | (not set) | 38.765833160868 | -77.571123785977 | 43.6931 | 2025-09-11 17:02:40 | in_vehicle | 100 | 4.8995502785055 | |
| 70105 | 250911_786839_16655227_1702 | 786839 | (not set) | (not set) | 39.357005856037 | -76.44994441427 | 0 | 2025-09-11 17:02:40 | in_vehicle | 100 | 0.12070059992669 | |
| 70106 | 250911_786839_16655227_1702 | 786839 | (not set) | (not set) | 39.357005856037 | -76.44994441427 | 0 | 2025-09-11 17:02:40 | in_vehicle | 100 | 0.12070059992669 | |
| 70107 | 250911_777802_16656811_1702 | 777802 | (not set) | (not set) | 38.9328439 | -77.2271537 | 0 | 2025-09-11 17:02:42 | still | 100 | 0.093878244387422 | |
| 70108 | 250911_777802_16656811_1702 | 777802 | (not set) | (not set) | 38.9328439 | -77.2271537 | 0 | 2025-09-11 17:02:42 | walking | 100 | 0.093878244387422 | |
| 70109 | 250911_772509_16639785_1659 | 772509 | (not set) | (not set) | 38.887118833333 | -77.065739666667 | 0.8761 | 2025-09-11 17:02:41 | in_vehicle | 100 | 9.1061897055799 | |
| 70110 | 250911_780805_16656446_1631 | 780805 | (not set) | (not set) | 39.015663298357 | -77.043928360578 | 10.7092 | 2025-09-11 17:02:42 | on_foot | 100 | 1.0237199030819 | |
| 70111 | 250911_769309_16636345_1603 | 769309 | (not set) | (not set) | 38.979438946804 | -77.47960668206 | 29.3369 | 2025-09-11 17:02:43 | in_vehicle | 100 | 10.004738616145 | |
| 70112 | 250911_788308_16656907_1559 | 788308 | (not set) | (not set) | 38.56852875478 | -77.759689955885 | 66.3658 | 2025-09-11 17:02:43 | in_vehicle | 100 | 12.476865718347 | |
| 70113 | 250911_787153_16655591_1655 | 787153 | (not set) | (not set) | 38.990919284033 | -76.922444762127 | 1.3515 | 2025-09-11 17:02:44 | unknown | 100 | 3.3393832646383 | |
| 70114 | 250911_787153_16655591_1655 | 787153 | (not set) | (not set) | 38.990919284033 | -76.922444762127 | 1.3515 | 2025-09-11 17:02:44 | unknown | 100 | 3.3393832646383 | |
| 70115 | 250911_788537_16657182_1647 | 788537 | (not set) | (not set) | 39.295724030568 | -76.615538964487 | 1.2972 | 2025-09-11 17:02:44 | in_vehicle | 100 | 4.0948796123276 | |
| 70116 | 250911_761201_16627990_1650 | 761201 | (not set) | (not set) | 38.869963896221 | -77.050175258214 | 2.1116 | 2025-09-11 17:02:46 | on_bicycle | 100 | 2.4855382799717 | |
| 70117 | 250911_785674_6441454_1619 | 785674 | (not set) | (not set) | 39.248668019917 | -77.29945741592 | 20.6585 | 2025-09-11 17:02:46 | in_vehicle | 100 | 9.2313606980965 | |
| 70118 | 250911_759217_16625734_1639 | 759217 | (not set) | (not set) | 38.928360562957 | -76.993721720113 | 3.8019 | 2025-09-11 17:02:45 | in_vehicle | 100 | 12.503688073887 | |
| 70119 | 250911_759217_16625734_1639 | 759217 | (not set) | (not set) | 38.928360562957 | -76.993721720113 | 3.8019 | 2025-09-11 17:02:45 | in_vehicle | 100 | 12.503688073887 | |
| 70120 | 250911_757722_16624176_1623 | 757722 | (not set) | (not set) | 38.866633461699 | -77.322116301327 | 14.7858 | 2025-09-11 17:02:49 | unknown | 100 | 13.035664792082 |